GLEB UNNT-UNNT
Flight info
| Callsign | GLEB |
|---|---|
| Flight time | 0h 13m |
| Altitude | 2500 |
| Route | RA/025 |
| Aircraft | C172/L-SFG/C |
Departure
| Time | 2026-04-27 12:56 |
|---|---|
| Airport | Novosibirsk Tolmachevo Airport (UNNT) |
Arrival
| Time | 2026-04-27 13:09 |
|---|---|
| Airport | Novosibirsk Tolmachevo Airport (UNNT) |
| Time | Latitude | Longitude | Altitude | Speed | Heading |
|---|---|---|---|---|---|
| 2026-04-27 12:41 | 55.00934 | 82.65450 | 351 ft | 0 kts | 173° |
| 2026-04-27 12:46 | 55.00923 | 82.65453 | 351 ft | 0 kts | 176° |
| 2026-04-27 12:46 | 55.00902 | 82.65443 | 350 ft | 0 kts | 215° |
| 2026-04-27 12:47 | 55.00895 | 82.65424 | 350 ft | 4 kts | 249° |
| 2026-04-27 12:47 | 55.00888 | 82.65334 | 350 ft | 11 kts | 257° |
| 2026-04-27 12:47 | 55.00886 | 82.65282 | 350 ft | 0 kts | 268° |
| 2026-04-27 12:48 | 55.00884 | 82.65225 | 349 ft | 9 kts | 281° |
| 2026-04-27 12:48 | 55.00937 | 82.65122 | 348 ft | 14 kts | 352° |
| 2026-04-27 12:48 | 55.01053 | 82.65092 | 348 ft | 17 kts | 351° |
| 2026-04-27 12:48 | 55.01119 | 82.65073 | 348 ft | 6 kts | 351° |
| 2026-04-27 12:49 | 55.01128 | 82.65071 | 348 ft | 0 kts | 351° |
| 2026-04-27 12:54 | 55.01129 | 82.65070 | 348 ft | 0 kts | 351° |
| 2026-04-27 12:54 | 55.01183 | 82.65057 | 348 ft | 16 kts | 352° |
| 2026-04-27 12:55 | 55.01228 | 82.64882 | 347 ft | 23 kts | 261° |
| 2026-04-27 12:55 | 55.01171 | 82.64252 | 373 ft | 71 kts | 261° |
| 2026-04-27 12:55 | 55.01083 | 82.63345 | 539 ft | 84 kts | 260° |
| 2026-04-27 12:55 | 55.00972 | 82.62289 | 762 ft | 89 kts | 258° |
| 2026-04-27 12:56 | 55.01004 | 82.61301 | 1052 ft | 85 kts | 314° |
| 2026-04-27 12:56 | 55.01604 | 82.61009 | 1148 ft | 102 kts | 352° |
| 2026-04-27 12:56 | 55.02286 | 82.60865 | 1451 ft | 93 kts | 353° |
| 2026-04-27 12:56 | 55.02938 | 82.60698 | 1654 ft | 97 kts | 349° |
| 2026-04-27 12:57 | 55.03603 | 82.60502 | 1867 ft | 99 kts | 351° |
| 2026-04-27 12:57 | 55.04293 | 82.60314 | 2071 ft | 100 kts | 351° |
| 2026-04-27 12:57 | 55.04982 | 82.60351 | 2241 ft | 104 kts | 21° |
| 2026-04-27 12:57 | 55.05538 | 82.61259 | 2276 ft | 116 kts | 64° |
| 2026-04-27 12:58 | 55.05750 | 82.62678 | 2283 ft | 124 kts | 80° |
| 2026-04-27 12:58 | 55.05891 | 82.64187 | 2281 ft | 128 kts | 81° |
| 2026-04-27 12:58 | 55.06031 | 82.65760 | 2281 ft | 130 kts | 81° |
| 2026-04-27 12:58 | 55.06169 | 82.67320 | 2280 ft | 131 kts | 81° |
| 2026-04-27 12:59 | 55.06310 | 82.68908 | 2280 ft | 132 kts | 81° |
| 2026-04-27 12:59 | 55.06451 | 82.70501 | 2280 ft | 132 kts | 81° |
| 2026-04-27 12:59 | 55.06592 | 82.72084 | 2280 ft | 132 kts | 81° |
| 2026-04-27 12:59 | 55.06734 | 82.73679 | 2280 ft | 132 kts | 81° |
| 2026-04-27 13:00 | 55.06872 | 82.75233 | 2280 ft | 130 kts | 81° |
| 2026-04-27 13:00 | 55.07011 | 82.76798 | 2280 ft | 131 kts | 81° |
| 2026-04-27 13:00 | 55.07153 | 82.78393 | 2280 ft | 132 kts | 81° |
| 2026-04-27 13:00 | 55.07293 | 82.79963 | 2280 ft | 132 kts | 81° |
| 2026-04-27 13:01 | 55.07436 | 82.81558 | 2280 ft | 132 kts | 81° |
| 2026-04-27 13:01 | 55.07577 | 82.83145 | 2280 ft | 132 kts | 81° |
| 2026-04-27 13:01 | 55.07719 | 82.84732 | 2280 ft | 132 kts | 81° |
| 2026-04-27 13:01 | 55.07862 | 82.86331 | 2280 ft | 132 kts | 81° |
| 2026-04-27 13:02 | 55.08003 | 82.87907 | 2280 ft | 132 kts | 81° |
| 2026-04-27 13:02 | 55.08146 | 82.89513 | 2277 ft | 133 kts | 81° |
| 2026-04-27 13:02 | 55.08026 | 82.91069 | 2272 ft | 133 kts | 119° |
| 2026-04-27 13:02 | 55.07320 | 82.92049 | 2274 ft | 132 kts | 161° |
| 2026-04-27 13:03 | 55.06428 | 82.92387 | 2280 ft | 132 kts | 170° |
| 2026-04-27 13:03 | 55.05508 | 82.92647 | 2280 ft | 132 kts | 171° |
| 2026-04-27 13:03 | 55.04609 | 82.92894 | 2280 ft | 132 kts | 171° |
| 2026-04-27 13:03 | 55.03690 | 82.93147 | 2280 ft | 132 kts | 171° |
| 2026-04-27 13:04 | 55.02782 | 82.93063 | 2272 ft | 133 kts | 202° |
| 2026-04-27 13:04 | 55.02114 | 82.92012 | 2272 ft | 133 kts | 242° |
| 2026-04-27 13:04 | 55.01928 | 82.90460 | 2274 ft | 132 kts | 274° |
| 2026-04-27 13:04 | 55.02197 | 82.88915 | 2279 ft | 132 kts | 292° |
| 2026-04-27 13:05 | 55.02558 | 82.87464 | 2280 ft | 132 kts | 294° |
| 2026-04-27 13:05 | 55.02936 | 82.85986 | 2280 ft | 132 kts | 294° |
| 2026-04-27 13:05 | 55.03208 | 82.84466 | 2275 ft | 133 kts | 271° |
| 2026-04-27 13:05 | 55.03060 | 82.82963 | 2262 ft | 111 kts | 256° |
| 2026-04-27 13:06 | 55.02921 | 82.81882 | 2217 ft | 78 kts | 258° |
| 2026-04-27 13:06 | 55.02822 | 82.80956 | 2082 ft | 84 kts | 261° |
| 2026-04-27 13:06 | 55.02688 | 82.79949 | 2083 ft | 86 kts | 253° |
| 2026-04-27 13:06 | 55.02539 | 82.78925 | 2204 ft | 84 kts | 257° |
| 2026-04-27 13:07 | 55.02399 | 82.77766 | 2110 ft | 113 kts | 259° |
| 2026-04-27 13:07 | 55.02255 | 82.76317 | 2039 ft | 129 kts | 260° |
| 2026-04-27 13:07 | 55.02102 | 82.74699 | 1826 ft | 144 kts | 262° |
| 2026-04-27 13:07 | 55.01971 | 82.73075 | 1635 ft | 102 kts | 263° |
| 2026-04-27 13:08 | 55.01880 | 82.72102 | 1380 ft | 72 kts | 262° |
| 2026-04-27 13:08 | 55.01811 | 82.71281 | 1080 ft | 67 kts | 262° |
| 2026-04-27 13:08 | 55.01759 | 82.70490 | 798 ft | 64 kts | 261° |
| 2026-04-27 13:08 | 55.01660 | 82.69624 | 704 ft | 69 kts | 260° |
| 2026-04-27 13:09 | 55.01587 | 82.68864 | 540 ft | 59 kts | 261° |
| 2026-04-27 13:09 | 55.01524 | 82.68153 | 450 ft | 61 kts | 261° |
| 2026-04-27 13:09 | 55.01456 | 82.67402 | 371 ft | 62 kts | 261° |
| 2026-04-27 13:09 | 55.01395 | 82.66718 | 348 ft | 40 kts | 262° |
| 2026-04-27 13:10 | 55.01298 | 82.66608 | 348 ft | 15 kts | 168° |
| 2026-04-27 13:10 | 55.01243 | 82.66624 | 348 ft | 5 kts | 173° |
| 2026-04-27 13:10 | 55.01140 | 82.66649 | 349 ft | 7 kts | 173° |
| 2026-04-27 13:10 | 55.01107 | 82.66657 | 349 ft | 6 kts | 181° |
| 2026-04-27 13:11 | 55.01059 | 82.66543 | 350 ft | 17 kts | 247° |
| 2026-04-27 13:11 | 55.01007 | 82.66296 | 352 ft | 19 kts | 247° |
| 2026-04-27 13:11 | 55.00971 | 82.66157 | 352 ft | 8 kts | 245° |